sensor_id;sensor_type;location;lat;lon;timestamp;pressure;altitude;pressure_sealevel;temperature;humidity
34374;BME280;20637;55.770;37.592;2023-10-31T00:01:48;98960.19;;;9.94;85.08
34374;BME280;20637;55.770;37.592;2023-10-31T00:04:14;98958.34;;;9.95;85.28
34374;BME280;20637;55.770;37.592;2023-10-31T00:06:40;98956.50;;;9.95;85.17
34374;BME280;20637;55.770;37.592;2023-10-31T00:09:05;98965.44;;;9.96;85.19
34374;BME280;20637;55.770;37.592;2023-10-31T00:11:31;98961.22;;;9.93;84.91
34374;BME280;20637;55.770;37.592;2023-10-31T00:13:56;98967.44;;;9.94;84.75
34374;BME280;20637;55.770;37.592;2023-10-31T00:16:23;98969.97;;;9.95;84.79
34374;BME280;20637;55.770;37.592;2023-10-31T00:18:48;98968.44;;;9.93;84.86
34374;BME280;20637;55.770;37.592;2023-10-31T00:21:14;98972.53;;;9.89;84.57
34374;BME280;20637;55.770;37.592;2023-10-31T00:23:46;98980.63;;;9.89;84.69
34374;BME280;20637;55.770;37.592;2023-10-31T00:26:12;98982.13;;;9.91;84.72
34374;BME280;20637;55.770;37.592;2023-10-31T00:28:41;98981.75;;;9.94;84.88
34374;BME280;20637;55.770;37.592;2023-10-31T00:31:07;98979.91;;;9.95;84.91
34374;BME280;20637;55.770;37.592;2023-10-31T00:33:34;98984.47;;;9.94;84.75
34374;BME280;20637;55.770;37.592;2023-10-31T00:35:59;98989.50;;;9.97;84.65
34374;BME280;20637;55.770;37.592;2023-10-31T00:38:25;98987.47;;;9.99;84.74
34374;BME280;20637;55.770;37.592;2023-10-31T00:40:50;98986.78;;;9.97;84.60
34374;BME280;20637;55.770;37.592;2023-10-31T00:43:16;99004.81;;;9.97;84.39
34374;BME280;20637;55.770;37.592;2023-10-31T00:45:43;99013.09;;;9.95;84.67
34374;BME280;20637;55.770;37.592;2023-10-31T00:48:08;99008.72;;;9.94;84.79
34374;BME280;20637;55.770;37.592;2023-10-31T00:50:34;99019.88;;;9.91;84.80
34374;BME280;20637;55.770;37.592;2023-10-31T00:53:00;99016.88;;;9.86;84.59
34374;BME280;20637;55.770;37.592;2023-10-31T00:55:25;99022.94;;;9.88;84.89
34374;BME280;20637;55.770;37.592;2023-10-31T00:57:51;99027.47;;;9.88;84.76
34374;BME280;20637;55.770;37.592;2023-10-31T01:00:16;99025.78;;;9.87;84.76
34374;BME280;20637;55.770;37.592;2023-10-31T01:02:42;99028.66;;;9.85;84.69
34374;BME280;20637;55.770;37.592;2023-10-31T01:05:07;99033.03;;;9.86;84.78
34374;BME280;20637;55.770;37.592;2023-10-31T01:07:34;99032.19;;;9.86;84.86
34374;BME280;20637;55.770;37.592;2023-10-31T01:09:59;99030.50;;;9.85;84.75
34374;BME280;20637;55.770;37.592;2023-10-31T01:12:24;99024.47;;;9.83;84.67
34374;BME280;20637;55.770;37.592;2023-10-31T01:14:53;99036.25;;;9.82;84.66
34374;BME280;20637;55.770;37.592;2023-10-31T01:17:19;99049.09;;;9.80;84.43
34374;BME280;20637;55.770;37.592;2023-10-31T01:19:44;99046.56;;;9.78;84.76
34374;BME280;20637;55.770;37.592;2023-10-31T01:22:10;99037.81;;;9.76;84.66
34374;BME280;20637;55.770;37.592;2023-10-31T01:24:35;99044.22;;;9.75;84.71
34374;BME280;20637;55.770;37.592;2023-10-31T01:27:01;99049.44;;;9.77;84.59
34374;BME280;20637;55.770;37.592;2023-10-31T01:29:27;99062.94;;;9.77;84.59
34374;BME280;20637;55.770;37.592;2023-10-31T01:31:52;99055.00;;;9.75;84.59
34374;BME280;20637;55.770;37.592;2023-10-31T01:34:17;99054.16;;;9.75;84.61
34374;BME280;20637;55.770;37.592;2023-10-31T01:36:43;99067.81;;;9.73;85.02
34374;BME280;20637;55.770;37.592;2023-10-31T01:39:08;99077.41;;;9.76;85.00
34374;BME280;20637;55.770;37.592;2023-10-31T01:41:35;99082.13;;;9.74;84.61
34374;BME280;20637;55.770;37.592;2023-10-31T01:44:00;99075.59;;;9.68;84.83
34374;BME280;20637;55.770;37.592;2023-10-31T01:46:26;99078.09;;;9.70;85.19
34374;BME280;20637;55.770;37.592;2023-10-31T01:48:51;99081.00;;;9.68;85.02
34374;BME280;20637;55.770;37.592;2023-10-31T01:51:17;99083.84;;;9.67;85.11
34374;BME280;20637;55.770;37.592;2023-10-31T01:53:43;99096.47;;;9.66;84.88
34374;BME280;20637;55.770;37.592;2023-10-31T01:56:08;99101.22;;;9.64;84.83
34374;BME280;20637;55.770;37.592;2023-10-31T01:58:34;99113.69;;;9.65;84.83
34374;BME280;20637;55.770;37.592;2023-10-31T02:01:00;99100.84;;;9.67;85.00
34374;BME280;20637;55.770;37.592;2023-10-31T02:03:29;99096.84;;;9.63;84.75
34374;BME280;20637;55.770;37.592;2023-10-31T02:05:55;99115.53;;;9.65;84.86
34374;BME280;20637;55.770;37.592;2023-10-31T02:08:20;99118.38;;;9.63;85.44
34374;BME280;20637;55.770;37.592;2023-10-31T02:10:50;99119.22;;;9.64;85.12
34374;BME280;20637;55.770;37.592;2023-10-31T02:13:16;99121.75;;;9.65;84.95
34374;BME280;20637;55.770;37.592;2023-10-31T02:15:42;99113.97;;;9.70;85.13
34374;BME280;20637;55.770;37.592;2023-10-31T02:18:08;99114.66;;;9.72;85.14
34374;BME280;20637;55.770;37.592;2023-10-31T02:20:53;99137.22;;;9.71;85.18
34374;BME280;20637;55.770;37.592;2023-10-31T02:23:19;99125.44;;;9.72;85.19
34374;BME280;20637;55.770;37.592;2023-10-31T02:25:44;99132.69;;;9.72;84.71
34374;BME280;20637;55.770;37.592;2023-10-31T02:28:10;99140.94;;;9.70;84.86
34374;BME280;20637;55.770;37.592;2023-10-31T02:30:35;99140.28;;;9.68;84.66
34374;BME280;20637;55.770;37.592;2023-10-31T02:33:02;99130.84;;;9.64;84.81
34374;BME280;20637;55.770;37.592;2023-10-31T02:35:27;99127.84;;;9.59;85.03
34374;BME280;20637;55.770;37.592;2023-10-31T02:37:53;99141.50;;;9.57;84.73
34374;BME280;20637;55.770;37.592;2023-10-31T02:40:18;99150.22;;;9.60;85.01
34374;BME280;20637;55.770;37.592;2023-10-31T02:42:44;99151.25;;;9.58;85.05
34374;BME280;20637;55.770;37.592;2023-10-31T02:45:10;99148.38;;;9.60;85.12
34374;BME280;20637;55.770;37.592;2023-10-31T02:47:35;99156.47;;;9.60;84.60
34374;BME280;20637;55.770;37.592;2023-10-31T02:50:01;99162.00;;;9.58;84.77
34374;BME280;20637;55.770;37.592;2023-10-31T02:52:26;99161.84;;;9.60;84.79
34374;BME280;20637;55.770;37.592;2023-10-31T02:54:53;99168.94;;;9.61;85.19
34374;BME280;20637;55.770;37.592;2023-10-31T02:57:19;99166.03;;;9.63;84.76
34374;BME280;20637;55.770;37.592;2023-10-31T02:59:44;99165.88;;;9.64;84.95
34374;BME280;20637;55.770;37.592;2023-10-31T03:02:10;99162.88;;;9.59;84.69
34374;BME280;20637;55.770;37.592;2023-10-31T03:04:36;99167.41;;;9.58;85.06
34374;BME280;20637;55.770;37.592;2023-10-31T03:07:02;99173.63;;;9.59;84.70
34374;BME280;20637;55.770;37.592;2023-10-31T03:09:27;99178.69;;;9.62;84.82
34374;BME280;20637;55.770;37.592;2023-10-31T03:11:53;99172.78;;;9.58;84.70
34374;BME280;20637;55.770;37.592;2023-10-31T03:14:19;99181.38;;;9.54;84.65
34374;BME280;20637;55.770;37.592;2023-10-31T03:16:44;99182.44;;;9.53;84.73
34374;BME280;20637;55.770;37.592;2023-10-31T03:19:10;99178.69;;;9.54;84.64
34374;BME280;20637;55.770;37.592;2023-10-31T03:21:36;99174.16;;;9.54;84.78
34374;BME280;20637;55.770;37.592;2023-10-31T03:24:01;99182.72;;;9.58;84.57
34374;BME280;20637;55.770;37.592;2023-10-31T03:26:26;99188.97;;;9.58;84.73
34374;BME280;20637;55.770;37.592;2023-10-31T03:28:52;99180.22;;;9.56;85.16
34374;BME280;20637;55.770;37.592;2023-10-31T03:31:22;99189.31;;;9.55;85.20
34374;BME280;20637;55.770;37.592;2023-10-31T03:33:48;99195.56;;;9.48;84.94
34374;BME280;20637;55.770;37.592;2023-10-31T03:36:14;99200.78;;;9.49;84.54
34374;BME280;20637;55.770;37.592;2023-10-31T03:38:39;99202.63;;;9.49;84.63
34374;BME280;20637;55.770;37.592;2023-10-31T03:41:05;99205.50;;;9.47;84.78
34374;BME280;20637;55.770;37.592;2023-10-31T03:43:30;99215.63;;;9.45;84.98
34374;BME280;20637;55.770;37.592;2023-10-31T03:45:55;99219.47;;;9.43;85.17
34374;BME280;20637;55.770;37.592;2023-10-31T03:48:21;99208.03;;;9.41;85.02
34374;BME280;20637;55.770;37.592;2023-10-31T03:50:46;99213.25;;;9.42;85.21
34374;BME280;20637;55.770;37.592;2023-10-31T03:53:12;99215.13;;;9.42;85.04
34374;BME280;20637;55.770;37.592;2023-10-31T03:55:37;99220.16;;;9.45;84.65
34374;BME280;20637;55.770;37.592;2023-10-31T03:58:03;99221.66;;;9.47;85.04
34374;BME280;20637;55.770;37.592;2023-10-31T04:00:29;99226.88;;;9.49;84.88
34374;BME280;20637;55.770;37.592;2023-10-31T04:02:55;99229.22;;;9.52;85.03
34374;BME280;20637;55.770;37.592;2023-10-31T04:05:20;99233.63;;;9.53;85.03
34374;BME280;20637;55.770;37.592;2023-10-31T04:07:46;99231.41;;;9.56;85.38
34374;BME280;20637;55.770;37.592;2023-10-31T04:10:12;99237.47;;;9.58;85.27
34374;BME280;20637;55.770;37.592;2023-10-31T04:12:37;99240.16;;;9.58;84.87
34374;BME280;20637;55.770;37.592;2023-10-31T04:15:03;99240.34;;;9.57;84.81
34374;BME280;20637;55.770;37.592;2023-10-31T04:17:28;99242.34;;;9.55;85.14
34374;BME280;20637;55.770;37.592;2023-10-31T04:19:54;99249.78;;;9.53;85.20
34374;BME280;20637;55.770;37.592;2023-10-31T04:22:19;99253.97;;;9.55;85.22
34374;BME280;20637;55.770;37.592;2023-10-31T04:24:45;99255.31;;;9.60;85.18
34374;BME280;20637;55.770;37.592;2023-10-31T04:27:10;99259.69;;;9.61;84.84
34374;BME280;20637;55.770;37.592;2023-10-31T04:29:36;99257.00;;;9.61;84.86
34374;BME280;20637;55.770;37.592;2023-10-31T04:32:01;99259.34;;;9.64;84.78
34374;BME280;20637;55.770;37.592;2023-10-31T04:34:26;99255.31;;;9.68;84.91
34374;BME280;20637;55.770;37.592;2023-10-31T04:36:52;99260.53;;;9.69;85.06
34374;BME280;20637;55.770;37.592;2023-10-31T04:39:17;99257.50;;;9.72;84.92
34374;BME280;20637;55.770;37.592;2023-10-31T04:41:43;99263.38;;;9.76;85.12
34374;BME280;20637;55.770;37.592;2023-10-31T04:44:08;99258.00;;;9.76;84.84
34374;BME280;20637;55.770;37.592;2023-10-31T04:46:33;99261.53;;;9.76;84.96
34374;BME280;20637;55.770;37.592;2023-10-31T04:48:59;99268.56;;;9.77;84.88
34374;BME280;20637;55.770;37.592;2023-10-31T04:51:24;99264.72;;;9.80;85.11
34374;BME280;20637;55.770;37.592;2023-10-31T04:53:50;99275.31;;;9.81;84.85
34374;BME280;20637;55.770;37.592;2023-10-31T04:56:17;99286.09;;;9.81;84.62
34374;BME280;20637;55.770;37.592;2023-10-31T04:58:42;99293.38;;;9.81;84.69
34374;BME280;20637;55.770;37.592;2023-10-31T05:01:11;99292.31;;;9.82;84.95
34374;BME280;20637;55.770;37.592;2023-10-31T05:03:37;99289.13;;;9.86;84.75
34374;BME280;20637;55.770;37.592;2023-10-31T05:06:03;99288.63;;;9.91;84.63
34374;BME280;20637;55.770;37.592;2023-10-31T05:08:29;99299.19;;;9.92;84.94
34374;BME280;20637;55.770;37.592;2023-10-31T05:10:54;99306.13;;;9.95;84.55
34374;BME280;20637;55.770;37.592;2023-10-31T05:13:20;99299.72;;;9.96;84.64
34374;BME280;20637;55.770;37.592;2023-10-31T05:15:45;99290.78;;;9.95;84.37
34374;BME280;20637;55.770;37.592;2023-10-31T05:18:11;99290.78;;;9.95;84.39
34374;BME280;20637;55.770;37.592;2023-10-31T05:20:36;99293.50;;;9.95;84.13
34374;BME280;20637;55.770;37.592;2023-10-31T05:23:01;99306.13;;;9.95;84.17
34374;BME280;20637;55.770;37.592;2023-10-31T05:25:27;99300.53;;;9.96;84.07
34374;BME280;20637;55.770;37.592;2023-10-31T05:27:52;99299.88;;;10.02;84.15
34374;BME280;20637;55.770;37.592;2023-10-31T05:30:18;99306.59;;;10.07;84.08
34374;BME280;20637;55.770;37.592;2023-10-31T05:32:43;99304.41;;;10.10;84.39
34374;BME280;20637;55.770;37.592;2023-10-31T05:35:10;99299.00;;;10.10;84.03
34374;BME280;20637;55.770;37.592;2023-10-31T05:37:35;99319.72;;;10.10;84.11
34374;BME280;20637;55.770;37.592;2023-10-31T05:40:00;99327.81;;;10.10;83.71
34374;BME280;20637;55.770;37.592;2023-10-31T05:42:27;99337.59;;;10.11;83.99
34374;BME280;20637;55.770;37.592;2023-10-31T05:44:54;99343.00;;;10.11;83.72
34374;BME280;20637;55.770;37.592;2023-10-31T05:47:19;99336.75;;;10.10;83.53
34374;BME280;20637;55.770;37.592;2023-10-31T05:49:45;99349.06;;;10.13;83.96
34374;BME280;20637;55.770;37.592;2023-10-31T05:52:11;99347.06;;;10.15;83.69
34374;BME280;20637;55.770;37.592;2023-10-31T05:54:36;99364.09;;;10.15;83.50
34374;BME280;20637;55.770;37.592;2023-10-31T05:57:02;99358.50;;;10.17;83.38
34374;BME280;20637;55.770;37.592;2023-10-31T05:59:27;99363.75;;;10.18;83.10
34374;BME280;20637;55.770;37.592;2023-10-31T06:01:52;99365.25;;;10.21;83.26
34374;BME280;20637;55.770;37.592;2023-10-31T06:04:18;99365.09;;;10.22;83.28
34374;BME280;20637;55.770;37.592;2023-10-31T06:06:43;99358.50;;;10.25;83.15
34374;BME280;20637;55.770;37.592;2023-10-31T06:09:09;99369.78;;;10.28;83.11
34374;BME280;20637;55.770;37.592;2023-10-31T06:11:35;99378.38;;;10.32;82.79
34374;BME280;20637;55.770;37.592;2023-10-31T06:14:01;99380.75;;;10.35;82.71
34374;BME280;20637;55.770;37.592;2023-10-31T06:16:26;99397.59;;;10.37;82.79
34374;BME280;20637;55.770;37.592;2023-10-31T06:18:51;99398.59;;;10.36;82.65
34374;BME280;20637;55.770;37.592;2023-10-31T06:21:17;99395.88;;;10.36;82.51
34374;BME280;20637;55.770;37.592;2023-10-31T06:23:42;99385.09;;;10.36;82.62
34374;BME280;20637;55.770;37.592;2023-10-31T06:26:10;99388.47;;;10.38;82.61
34374;BME280;20637;55.770;37.592;2023-10-31T06:28:35;99394.53;;;10.40;82.41
34374;BME280;20637;55.770;37.592;2023-10-31T06:31:02;99387.78;;;10.44;82.22
34374;BME280;20637;55.770;37.592;2023-10-31T06:33:28;99386.78;;;10.45;82.17
34374;BME280;20637;55.770;37.592;2023-10-31T06:35:53;99380.38;;;10.46;82.40
34374;BME280;20637;55.770;37.592;2023-10-31T06:38:19;99376.63;;;10.47;82.41
34374;BME280;20637;55.770;37.592;2023-10-31T06:40:44;99380.66;;;10.51;82.36
34374;BME280;20637;55.770;37.592;2023-10-31T06:43:10;99388.09;;;10.57;82.40
34374;BME280;20637;55.770;37.592;2023-10-31T06:45:35;99393.13;;;10.60;82.51
34374;BME280;20637;55.770;37.592;2023-10-31T06:48:01;99392.13;;;10.61;82.34
34374;BME280;20637;55.770;37.592;2023-10-31T06:50:27;99401.88;;;10.62;82.30
34374;BME280;20637;55.770;37.592;2023-10-31T06:52:52;99389.72;;;10.66;82.29
34374;BME280;20637;55.770;37.592;2023-10-31T06:55:17;99397.13;;;10.72;82.36
34374;BME280;20637;55.770;37.592;2023-10-31T06:57:43;99393.44;;;10.73;82.53
34374;BME280;20637;55.770;37.592;2023-10-31T07:00:10;99403.88;;;10.76;82.43
34374;BME280;20637;55.770;37.592;2023-10-31T07:02:35;99407.41;;;10.77;82.19
34374;BME280;20637;55.770;37.592;2023-10-31T07:05:01;99413.31;;;10.80;82.21
34374;BME280;20637;55.770;37.592;2023-10-31T07:07:29;99421.03;;;10.83;82.11
34374;BME280;20637;55.770;37.592;2023-10-31T07:09:54;99436.03;;;10.86;82.12
34374;BME280;20637;55.770;37.592;2023-10-31T07:12:19;99422.75;;;10.84;82.11
34374;BME280;20637;55.770;37.592;2023-10-31T07:14:45;99432.50;;;10.85;82.20
34374;BME280;20637;55.770;37.592;2023-10-31T07:17:10;99446.31;;;10.90;82.06
34374;BME280;20637;55.770;37.592;2023-10-31T07:19:36;99439.06;;;10.91;82.21
34374;BME280;20637;55.770;37.592;2023-10-31T07:22:01;99454.75;;;10.95;82.12
34374;BME280;20637;55.770;37.592;2023-10-31T07:24:27;99451.88;;;10.97;82.01
34374;BME280;20637;55.770;37.592;2023-10-31T07:26:53;99460.66;;;10.99;81.88
34374;BME280;20637;55.770;37.592;2023-10-31T07:29:18;99456.94;;;11.00;82.21
34374;BME280;20637;55.770;37.592;2023-10-31T07:31:44;99454.03;;;11.02;82.37
34374;BME280;20637;55.770;37.592;2023-10-31T07:34:09;99458.94;;;11.06;82.03
34374;BME280;20637;55.770;37.592;2023-10-31T07:36:36;99458.94;;;11.06;82.22
34374;BME280;20637;55.770;37.592;2023-10-31T07:39:02;99465.81;;;11.09;82.28
34374;BME280;20637;55.770;37.592;2023-10-31T07:41:29;99465.00;;;11.08;82.24
34374;BME280;20637;55.770;37.592;2023-10-31T07:43:54;99475.63;;;11.10;81.94
34374;BME280;20637;55.770;37.592;2023-10-31T07:46:20;99478.16;;;11.11;82.18
34374;BME280;20637;55.770;37.592;2023-10-31T07:48:45;99480.19;;;11.09;82.09
34374;BME280;20637;55.770;37.592;2023-10-31T07:51:11;99480.19;;;11.09;81.91
34374;BME280;20637;55.770;37.592;2023-10-31T07:53:36;99479.34;;;11.09;82.17
34374;BME280;20637;55.770;37.592;2023-10-31T07:56:02;99482.72;;;11.11;82.22
34374;BME280;20637;55.770;37.592;2023-10-31T07:58:27;99496.88;;;11.13;82.24
34374;BME280;20637;55.770;37.592;2023-10-31T08:00:52;99487.94;;;11.12;81.92
34374;BME280;20637;55.770;37.592;2023-10-31T08:03:18;99495.88;;;11.14;82.29
34374;BME280;20637;55.770;37.592;2023-10-31T08:05:43;99499.94;;;11.10;81.78
34374;BME280;20637;55.770;37.592;2023-10-31T08:08:09;99497.59;;;11.07;81.90
34374;BME280;20637;55.770;37.592;2023-10-31T08:10:34;99508.03;;;11.10;81.90
34374;BME280;20637;55.770;37.592;2023-10-31T08:13:00;99496.72;;;11.14;82.14
34374;BME280;20637;55.770;37.592;2023-10-31T08:15:25;99500.38;;;11.21;82.25
34374;BME280;20637;55.770;37.592;2023-10-31T08:17:51;99492.25;;;11.29;82.08
34374;BME280;20637;55.770;37.592;2023-10-31T08:20:16;99500.50;;;11.36;82.45
34374;BME280;20637;55.770;37.592;2023-10-31T08:22:41;99498.47;;;11.38;82.15
34374;BME280;20637;55.770;37.592;2023-10-31T08:25:09;99488.31;;;11.40;82.08
34374;BME280;20637;55.770;37.592;2023-10-31T08:27:35;99488.50;;;11.38;82.06
34374;BME280;20637;55.770;37.592;2023-10-31T08:30:01;99491.00;;;11.40;82.19
34374;BME280;20637;55.770;37.592;2023-10-31T08:32:29;99489.34;;;11.39;82.00
34374;BME280;20637;55.770;37.592;2023-10-31T08:34:54;99502.69;;;11.32;82.12
34374;BME280;20637;55.770;37.592;2023-10-31T08:37:21;99502.91;;;11.31;81.71
34374;BME280;20637;55.770;37.592;2023-10-31T08:39:46;99499.50;;;11.29;82.20
34374;BME280;20637;55.770;37.592;2023-10-31T08:42:12;99503.59;;;11.25;81.86
34374;BME280;20637;55.770;37.592;2023-10-31T08:44:39;99509.00;;;11.17;81.79
34374;BME280;20637;55.770;37.592;2023-10-31T08:47:05;99503.13;;;11.13;81.68
34374;BME280;20637;55.770;37.592;2023-10-31T08:49:31;99511.72;;;11.17;82.02
34374;BME280;20637;55.770;37.592;2023-10-31T08:51:57;99505.47;;;11.16;81.76
34374;BME280;20637;55.770;37.592;2023-10-31T08:54:22;99510.88;;;11.16;82.35
34374;BME280;20637;55.770;37.592;2023-10-31T08:56:47;99506.66;;;11.14;82.00
34374;BME280;20637;55.770;37.592;2023-10-31T08:59:13;99512.06;;;11.14;82.12
34374;BME280;20637;55.770;37.592;2023-10-31T09:01:38;99508.72;;;11.12;81.93
34374;BME280;20637;55.770;37.592;2023-10-31T09:04:04;99509.38;;;11.14;82.10
34374;BME280;20637;55.770;37.592;2023-10-31T09:06:29;99496.00;;;11.20;82.21
34374;BME280;20637;55.770;37.592;2023-10-31T09:08:54;99491.09;;;11.24;81.67
34374;BME280;20637;55.770;37.592;2023-10-31T09:11:20;99501.22;;;11.30;82.03
34374;BME280;20637;55.770;37.592;2023-10-31T09:13:45;99503.19;;;11.36;81.57
34374;BME280;20637;55.770;37.592;2023-10-31T09:16:11;99510.59;;;11.42;81.74
34374;BME280;20637;55.770;37.592;2023-10-31T09:18:37;99508.19;;;11.47;81.61
34374;BME280;20637;55.770;37.592;2023-10-31T09:21:03;99508.16;;;11.55;81.93
34374;BME280;20637;55.770;37.592;2023-10-31T09:23:28;99513.41;;;11.57;81.36
34374;BME280;20637;55.770;37.592;2023-10-31T09:25:54;99520.50;;;11.58;81.36
34374;BME280;20637;55.770;37.592;2023-10-31T09:28:20;99515.09;;;11.58;81.13
34374;BME280;20637;55.770;37.592;2023-10-31T09:30:45;99517.44;;;11.61;80.75
34374;BME280;20637;55.770;37.592;2023-10-31T09:33:11;99518.94;;;11.63;81.17
34374;BME280;20637;55.770;37.592;2023-10-31T09:35:36;99511.31;;;11.67;81.67
34374;BME280;20637;55.770;37.592;2023-10-31T09:38:01;99505.41;;;11.71;81.40
34374;BME280;20637;55.770;37.592;2023-10-31T09:40:28;99502.69;;;11.71;81.27
34374;BME280;20637;55.770;37.592;2023-10-31T09:42:53;99497.78;;;11.67;80.63
34374;BME280;20637;55.770;37.592;2023-10-31T09:45:18;99498.81;;;11.66;80.93
34374;BME280;20637;55.770;37.592;2023-10-31T09:47:44;99499.63;;;11.66;80.70
34374;BME280;20637;55.770;37.592;2023-10-31T09:50:09;99500.00;;;11.71;80.76
34374;BME280;20637;55.770;37.592;2023-10-31T09:52:35;99493.03;;;11.77;81.44
34374;BME280;20637;55.770;37.592;2023-10-31T09:55:02;99497.41;;;11.78;81.00
34374;BME280;20637;55.770;37.592;2023-10-31T09:57:29;99501.63;;;11.80;80.96
34374;BME280;20637;55.770;37.592;2023-10-31T09:59:54;99496.03;;;11.82;81.04
34374;BME280;20637;55.770;37.592;2023-10-31T10:02:20;99509.75;;;11.80;80.40
34374;BME280;20637;55.770;37.592;2023-10-31T10:04:45;99509.75;;;11.80;80.50
34374;BME280;20637;55.770;37.592;2023-10-31T10:07:17;99502.94;;;11.84;80.99
34374;BME280;20637;55.770;37.592;2023-10-31T10:09:43;99509.69;;;11.88;81.00
34374;BME280;20637;55.770;37.592;2023-10-31T10:12:11;99511.34;;;11.89;80.68
34374;BME280;20637;55.770;37.592;2023-10-31T10:14:37;99513.78;;;11.84;80.14
34374;BME280;20637;55.770;37.592;2023-10-31T10:17:03;99513.09;;;11.82;79.77
34374;BME280;20637;55.770;37.592;2023-10-31T10:19:38;99516.66;;;11.83;79.80
34374;BME280;20637;55.770;37.592;2023-10-31T10:22:04;99515.25;;;11.87;79.71
34374;BME280;20637;55.770;37.592;2023-10-31T10:24:29;99518.66;;;11.89;79.81
34374;BME280;20637;55.770;37.592;2023-10-31T10:26:55;99512.88;;;11.92;79.85
34374;BME280;20637;55.770;37.592;2023-10-31T10:29:20;99503.53;;;11.94;80.04
34374;BME280;20637;55.770;37.592;2023-10-31T10:31:46;99487.16;;;11.96;79.39
34374;BME280;20637;55.770;37.592;2023-10-31T10:34:13;99490.50;;;11.98;79.41
34374;BME280;20637;55.770;37.592;2023-10-31T10:36:39;99504.69;;;12.00;79.29
34374;BME280;20637;55.770;37.592;2023-10-31T10:39:04;99502.47;;;12.04;79.40
34374;BME280;20637;55.770;37.592;2023-10-31T10:41:31;99497.53;;;12.07;79.46
34374;BME280;20637;55.770;37.592;2023-10-31T10:46:27;99485.50;;;12.10;78.77
34374;BME280;20637;55.770;37.592;2023-10-31T10:48:56;99471.81;;;12.11;78.65
34374;BME280;20637;55.770;37.592;2023-10-31T10:51:29;99472.34;;;12.07;78.68
34374;BME280;20637;55.770;37.592;2023-10-31T10:54:11;99479.31;;;12.01;78.75
34374;BME280;20637;55.770;37.592;2023-10-31T10:56:42;99476.97;;;11.98;78.84
34374;BME280;20637;55.770;37.592;2023-10-31T10:59:14;99486.09;;;11.97;79.56
34374;BME280;20637;55.770;37.592;2023-10-31T11:01:41;99493.41;;;11.97;79.14
34374;BME280;20637;55.770;37.592;2023-10-31T11:04:06;99492.56;;;11.96;79.24
34374;BME280;20637;55.770;37.592;2023-10-31T11:06:33;99484.06;;;11.99;79.17
34374;BME280;20637;55.770;37.592;2023-10-31T11:09:00;99492.19;;;11.99;78.62
34374;BME280;20637;55.770;37.592;2023-10-31T11:11:25;99487.63;;;12.00;79.33
34374;BME280;20637;55.770;37.592;2023-10-31T11:13:52;99489.81;;;12.04;79.29
34374;BME280;20637;55.770;37.592;2023-10-31T11:16:20;99490.06;;;12.09;79.17
34374;BME280;20637;55.770;37.592;2023-10-31T11:18:49;99493.75;;;12.16;79.60
34374;BME280;20637;55.770;37.592;2023-10-31T11:21:15;99491.53;;;12.20;79.26
34374;BME280;20637;55.770;37.592;2023-10-31T11:23:40;99496.19;;;12.26;78.93
34374;BME280;20637;55.770;37.592;2023-10-31T11:26:06;99491.25;;;12.29;79.18
34374;BME280;20637;55.770;37.592;2023-10-31T11:28:33;99483.63;;;12.33;78.84
34374;BME280;20637;55.770;37.592;2023-10-31T11:30:59;99482.59;;;12.34;78.69
34374;BME280;20637;55.770;37.592;2023-10-31T11:33:27;99468.69;;;12.37;78.40
34374;BME280;20637;55.770;37.592;2023-10-31T11:36:01;99473.72;;;12.40;78.49
34374;BME280;20637;55.770;37.592;2023-10-31T11:38:31;99471.16;;;12.47;78.60
34374;BME280;20637;55.770;37.592;2023-10-31T11:41:00;99471.41;;;12.52;78.85
34374;BME280;20637;55.770;37.592;2023-10-31T11:43:34;99472.72;;;12.56;78.71
34374;BME280;20637;55.770;37.592;2023-10-31T11:46:00;99476.97;;;12.58;78.70
34374;BME280;20637;55.770;37.592;2023-10-31T11:48:44;99469.84;;;12.57;78.78
34374;BME280;20637;55.770;37.592;2023-10-31T11:51:10;99479.38;;;12.53;78.36
34374;BME280;20637;55.770;37.592;2023-10-31T11:53:38;99468.91;;;12.50;78.46
34374;BME280;20637;55.770;37.592;2023-10-31T11:56:04;99469.94;;;12.49;78.41
34374;BME280;20637;55.770;37.592;2023-10-31T11:58:30;99476.66;;;12.53;78.49
34374;BME280;20637;55.770;37.592;2023-10-31T12:01:03;99476.97;;;12.58;78.78
34374;BME280;20637;55.770;37.592;2023-10-31T12:03:35;99473.69;;;12.63;78.27
34374;BME280;20637;55.770;37.592;2023-10-31T12:06:01;99473.69;;;12.63;78.44
34374;BME280;20637;55.770;37.592;2023-10-31T12:08:35;99480.97;;;12.62;78.78
34374;BME280;20637;55.770;37.592;2023-10-31T12:13:32;99469.19;;;12.55;78.58
34374;BME280;20637;55.770;37.592;2023-10-31T12:15:58;99465.66;;;12.55;78.41
34374;BME280;20637;55.770;37.592;2023-10-31T12:18:26;99461.66;;;12.51;78.33
34374;BME280;20637;55.770;37.592;2023-10-31T12:20:51;99462.00;;;12.48;77.39
34374;BME280;20637;55.770;37.592;2023-10-31T12:23:20;99459.84;;;12.43;77.44
34374;BME280;20637;55.770;37.592;2023-10-31T12:25:46;99468.78;;;12.43;77.75
34374;BME280;20637;55.770;37.592;2023-10-31T12:28:15;99461.34;;;12.46;77.81
34374;BME280;20637;55.770;37.592;2023-10-31T12:30:44;99460.31;;;12.47;78.45
34374;BME280;20637;55.770;37.592;2023-10-31T12:33:09;99460.31;;;12.47;77.94
34374;BME280;20637;55.770;37.592;2023-10-31T12:35:35;99452.38;;;12.45;77.39
34374;BME280;20637;55.770;37.592;2023-10-31T12:38:00;99462.56;;;12.43;77.82
34374;BME280;20637;55.770;37.592;2023-10-31T12:40:26;99470.00;;;12.41;77.79
34374;BME280;20637;55.770;37.592;2023-10-31T12:42:51;99478.34;;;12.39;77.39
34374;BME280;20637;55.770;37.592;2023-10-31T12:45:17;99469.72;;;12.36;78.26
34374;BME280;20637;55.770;37.592;2023-10-31T12:47:43;99468.41;;;12.32;77.71
34374;BME280;20637;55.770;37.592;2023-10-31T12:50:12;99469.81;;;12.28;78.06
34374;BME280;20637;55.770;37.592;2023-10-31T12:52:54;99476.97;;;12.21;76.88
34374;BME280;20637;55.770;37.592;2023-10-31T12:55:29;99485.66;;;12.16;76.98